This is the latest recevied weather packets stored in our database for station/object W5ADC. If no packets are shown the sender has not sent any weather packets the latest 10 day(s).
| Time | Temp. | Humidity | Pressure | Rain* | Wind** | Luminosity | Snow |
|---|---|---|---|---|---|---|---|
| 1777483442 | 16.67° C | 82% | 1011.8 hPa | 0 mm | - | 97 W/m² | - |
| 1777483137 | 16.67° C | 83% | 1010.9 hPa | 0 mm | - | 267 W/m² | - |
| 1777482834 | 16.11° C | 83% | 1011.3 hPa | 0 mm | - | 241 W/m² | - |
| 1777482530 | 16.11° C | 84% | 1011.9 hPa | 0 mm | - | 105 W/m² | - |
| 1777482228 | 16.11° C | 84% | 1012.3 hPa | 0 mm | - | 106 W/m² | - |
| 1777481925 | 16.11° C | 84% | 1013 hPa | 0 mm | - | 63 W/m² | - |
| 1777481622 | 15.56° C | 84% | 1012.7 hPa | 0 mm | - | 42 W/m² | - |
| 1777481319 | 15.56° C | 84% | 1012.7 hPa | 0 mm | - | 45 W/m² | - |
| 1777481016 | 15.56° C | 84% | 1012.2 hPa | 0 mm | - | 58 W/m² | - |
| 1777480712 | 16.11° C | 84% | 1012.4 hPa | 0 mm | - | 53 W/m² | - |
| 1777480409 | 16.11° C | 84% | 1011.9 hPa | 0 mm | - | 115 W/m² | - |
| 1777480105 | 15.56° C | 85% | 1012.2 hPa | 0 mm | - | 137 W/m² | - |
| 1777479802 | 15.56° C | 85% | 1012.4 hPa | 0 mm | - | 75 W/m² | - |
| 1777479499 | 16.11° C | 84% | 1012.1 hPa | 0 mm | - | 104 W/m² | - |
| 1777479196 | 16.11° C | 84% | 1011.7 hPa | 0 mm | - | 151 W/m² | - |
| 1777478893 | 15.56° C | 85% | 1011.7 hPa | 0 mm | - | 232 W/m² | - |
| 1777478589 | 15.56° C | 86% | 1011.8 hPa | 0 mm | - | 153 W/m² | - |
| 1777478286 | 15.56° C | 87% | 1012.6 hPa | 0 mm | - | 59 W/m² | - |
| 1777477983 | 15.56° C | 86% | 1012.8 hPa | 0 mm | - | 59 W/m² | - |
| 1777477677 | 15.56° C | 86% | 1012.2 hPa | 0 mm | - | 83 W/m² | - |
| 1777477375 | 15.56° C | 86% | 1012.1 hPa | 0 mm | - | 103 W/m² | - |
| 1777477071 | 15.56° C | 87% | 1011.8 hPa | 0 mm | - | 256 W/m² | - |
| 1777476769 | 15.56° C | 85% | 1012.1 hPa | 0 mm | - | 131 W/m² | - |
| 1777476465 | 15.56° C | 85% | 1012.1 hPa | 0 mm | - | 144 W/m² | - |
| 1777476162 | 15.56° C | 84% | 1012.7 hPa | 0 mm | - | 70 W/m² | - |
* Rain latest hour (hover to see other rain measurements)
** Current wind speed in m/s (hover to see current wind gust speed)